Time;durP1;ratioP1;P1;durP2;ratioP2;P2;SDS_P1;SDS_P2;PMS_P1;PMS_P2;Temp;Humidity;BMP_temperature;BMP_pressure;BME280_temperature;BME280_humidity;BME280_pressure;Samples;Min_cycle;Max_cycle;Signal;HPM_P1;HPM_P2
2021/10/06 00:00:21;;;;;;;3.93;1.27;;;;;;;10.57;100.00;154074.31;5070832;28;20529;-74
2021/10/06 00:02:58;;;;;;;2.37;0.83;;;;;;;10.57;100.00;154073.00;5087309;28;20446;-74
2021/10/06 00:05:34;;;;;;;2.73;0.97;;;;;;;10.56;100.00;154071.75;5087206;28;20989;-74
2021/10/06 00:08:10;;;;;;;1.50;1.00;;;;;;;10.58;100.00;154075.59;5099017;28;20504;-74
2021/10/06 00:10:46;;;;;;;1.37;0.70;;;;;;;10.58;100.00;154076.91;5049496;28;20462;-74
2021/10/06 00:13:21;;;;;;;3.17;0.93;;;;;;;10.55;100.00;154069.13;5054653;28;20415;-74
2021/10/06 00:15:57;;;;;;;1.27;0.90;;;;;;;10.52;100.00;154061.34;5070265;28;20441;-74
2021/10/06 00:18:34;;;;;;;2.27;1.13;;;;;;;10.48;100.00;154051.03;5054336;28;20438;-74
2021/10/06 00:21:09;;;;;;;2.00;0.90;;;;;;;10.45;100.00;154041.94;5067390;28;20454;-74
2021/10/06 00:23:45;;;;;;;1.70;0.93;;;;;;;10.41;100.00;154032.88;5070222;28;20455;-74
2021/10/06 00:26:20;;;;;;;2.50;1.00;;;;;;;10.35;100.00;154017.38;5054686;28;20823;-74
2021/10/06 00:28:56;;;;;;;1.30;1.07;;;;;;;10.34;100.00;154014.75;5069633;28;20497;-74
2021/10/06 00:31:31;;;;;;;1.60;1.00;;;;;;;10.33;100.00;154012.16;5086353;28;20455;-74
2021/10/06 00:34:08;;;;;;;1.77;1.00;;;;;;;10.26;100.00;153994.03;5054403;28;20440;-74
2021/10/06 00:36:44;;;;;;;1.87;0.77;;;;;;;10.29;100.00;154003.13;5075553;28;20479;-74
2021/10/06 00:39:20;;;;;;;1.90;0.90;;;;;;;10.29;100.00;154003.13;5070964;28;20446;-74
2021/10/06 00:41:55;;;;;;;1.70;1.00;;;;;;;10.22;100.00;153983.66;5085564;28;20585;-74
2021/10/06 00:44:34;;;;;;;1.43;0.97;;;;;;;10.16;100.00;153968.16;5054121;28;20559;-74
2021/10/06 00:47:12;;;;;;;2.10;1.17;;;;;;;10.10;100.00;153953.88;5086406;28;20467;-74
2021/10/06 00:49:49;;;;;;;1.23;1.00;;;;;;;10.10;100.00;153952.56;5086636;28;20456;-74
2021/10/06 00:52:24;;;;;;;1.33;1.10;;;;;;;10.09;100.00;153949.97;5080688;28;20435;-74
2021/10/06 00:55:00;;;;;;;2.03;1.23;;;;;;;10.00;100.00;153926.69;5050936;28;20447;-74
2021/10/06 00:57:35;;;;;;;1.47;0.77;;;;;;;9.98;100.00;153921.53;5038163;28;20443;-74
2021/10/06 01:00:12;;;;;;;1.30;0.80;;;;;;;10.01;100.00;153929.25;5061709;28;20930;-74
2021/10/06 01:02:48;;;;;;;1.87;0.93;;;;;;;9.98;100.00;153921.53;5049499;28;20925;-75
2021/10/06 01:05:25;;;;;;;2.17;1.10;;;;;;;9.93;100.00;153908.59;5068714;28;20838;-74
2021/10/06 01:08:01;;;;;;;1.67;0.97;;;;;;;9.94;100.00;153911.16;5053702;28;20474;-74
2021/10/06 01:10:36;;;;;;;1.40;0.90;;;;;;;9.92;100.00;153906.00;5051100;28;20450;-75
2021/10/06 01:13:15;;;;;;;1.20;0.80;;;;;;;9.90;100.00;153902.06;5053529;28;20800;-74
2021/10/06 01:15:52;;;;;;;1.40;0.90;;;;;;;9.89;100.00;153898.22;5064547;28;20430;-74
2021/10/06 01:18:28;;;;;;;1.70;0.90;;;;;;;9.89;100.00;153899.53;5045751;28;20523;-74
2021/10/06 01:21:12;;;;;;;1.70;1.03;;;;;;;9.88;100.00;153895.59;5086307;28;20442;-74
2021/10/06 01:23:49;;;;;;;2.40;1.20;;;;;;;9.86;100.00;153890.44;5040567;28;20458;-74
2021/10/06 01:26:24;;;;;;;4.77;1.50;;;;;;;9.87;100.00;153893.06;5084865;28;20953;-74
2021/10/06 01:29:00;;;;;;;1.40;1.03;;;;;;;9.87;100.00;153893.06;5051310;28;20516;-72
2021/10/06 01:31:36;;;;;;;1.43;1.00;;;;;;;9.79;100.00;153873.66;5069210;28;20458;-74
2021/10/06 01:34:12;;;;;;;1.60;1.23;;;;;;;9.87;100.00;153894.34;5068736;28;20435;-74
2021/10/06 01:36:50;;;;;;;2.00;1.00;;;;;;;9.84;100.00;153885.28;5078187;28;20431;-73
2021/10/06 01:39:26;;;;;;;3.00;1.10;;;;;;;9.77;100.00;153869.75;5053144;28;20542;-74
2021/10/06 01:42:01;;;;;;;3.30;1.30;;;;;;;9.69;100.00;153847.72;5053027;28;20968;-74
2021/10/06 01:44:36;;;;;;;1.80;1.10;;;;;;;9.67;100.00;153843.88;5085523;28;20454;-74
2021/10/06 01:47:18;;;;;;;2.30;1.30;;;;;;;9.61;100.00;153828.34;5052599;28;20430;-74
2021/10/06 01:49:54;;;;;;;1.67;1.27;;;;;;;9.61;100.00;153828.34;5053499;28;20457;-72
2021/10/06 01:52:31;;;;;;;2.73;1.33;;;;;;;9.59;100.00;153821.88;5053415;28;20447;-74
2021/10/06 01:55:08;;;;;;;2.10;1.20;;;;;;;9.58;100.00;153820.56;5048800;28;20450;-74
2021/10/06 01:57:43;;;;;;;1.57;1.03;;;;;;;9.56;100.00;153815.41;5057293;28;20451;-74
2021/10/06 02:00:19;;;;;;;2.97;1.07;;;;;;;9.57;100.00;153818.00;5051581;28;20460;-74
2021/10/06 02:02:55;;;;;;;2.50;1.50;;;;;;;9.51;100.00;153802.47;5084885;28;20443;-74
2021/10/06 02:05:33;;;;;;;1.53;1.30;;;;;;;9.50;100.00;153798.59;5052041;28;20524;-74
2021/10/06 02:08:10;;;;;;;2.47;1.20;;;;;;;9.51;100.00;153801.16;5043344;28;20481;-74
2021/10/06 02:10:46;;;;;;;2.00;1.33;;;;;;;9.49;100.00;153797.31;5036431;28;20444;-74
2021/10/06 02:13:21;;;;;;;1.73;1.20;;;;;;;9.50;100.00;153799.91;5032778;28;20883;-73
2021/10/06 02:15:57;;;;;;;1.60;1.20;;;;;;;9.48;100.00;153793.41;5033113;28;20442;-74
2021/10/06 02:18:33;;;;;;;1.60;1.10;;;;;;;9.39;100.00;153771.44;5084674;28;20447;-74
2021/10/06 02:21:08;;;;;;;2.23;1.50;;;;;;;9.38;100.00;153768.84;5052104;28;20439;-74
2021/10/06 02:23:45;;;;;;;1.50;1.30;;;;;;;9.36;100.00;153763.66;5042520;28;20453;-74
2021/10/06 02:26:21;;;;;;;1.20;0.90;;;;;;;9.41;100.00;153776.59;5076861;28;20838;-74
2021/10/06 02:28:56;;;;;;;1.57;1.00;;;;;;;9.37;100.00;153766.22;5070600;28;20455;-74
2021/10/06 02:31:32;;;;;;;2.53;1.50;;;;;;;9.37;100.00;153766.22;5067372;28;20937;-74
2021/10/06 02:34:08;;;;;;;2.10;1.30;;;;;;;9.33;100.00;153754.59;5051483;28;20435;-74
2021/10/06 02:36:43;;;;;;;1.33;1.10;;;;;;;9.31;100.00;153749.44;5084175;28;20433;-74
2021/10/06 02:39:20;;;;;;;1.47;1.37;;;;;;;9.28;100.00;153742.97;5084304;28;20458;-74
2021/10/06 02:41:55;;;;;;;1.80;1.30;;;;;;;9.29;100.00;153744.28;5067420;28;20506;-74
2021/10/06 02:44:31;;;;;;;3.53;1.53;;;;;;;9.27;100.00;153739.06;5034312;28;20487;-74
2021/10/06 02:47:07;;;;;;;1.80;1.30;;;;;;;9.26;100.00;153737.81;5076812;28;21016;-74
2021/10/06 02:49:42;;;;;;;1.50;1.20;;;;;;;9.22;100.00;153726.13;5084487;28;20459;-74
2021/10/06 02:52:17;;;;;;;2.73;1.90;;;;;;;9.21;100.00;153723.59;5049024;28;20446;-74
2021/10/06 02:54:55;;;;;;;4.13;1.20;;;;;;;9.17;100.00;153714.50;5061402;28;20534;-75
2021/10/06 02:57:30;;;;;;;2.40;1.53;;;;;;;9.19;100.00;153719.69;5078878;28;20445;-74
2021/10/06 03:00:08;;;;;;;2.67;1.27;;;;;;;9.17;100.00;153714.50;5067325;28;20443;-74
2021/10/06 03:02:43;;;;;;;3.87;2.03;;;;;;;9.12;100.00;153701.59;5051201;28;20443;-74
2021/10/06 03:05:19;;;;;;;3.03;1.20;;;;;;;9.10;100.00;153696.41;5084697;28;20470;-74
2021/10/06 03:07:54;;;;;;;1.80;1.10;;;;;;;9.09;100.00;153693.81;5052428;28;20423;-74
2021/10/06 03:10:31;;;;;;;1.30;1.03;;;;;;;9.10;100.00;153696.41;5045831;28;20451;-74
2021/10/06 03:13:06;;;;;;;2.20;1.23;;;;;;;9.05;100.00;153684.75;5050495;28;20453;-74
2021/10/06 03:15:42;;;;;;;4.33;1.37;;;;;;;9.09;100.00;153693.81;5049387;28;20432;-74
2021/10/06 03:18:18;;;;;;;1.97;1.40;;;;;;;9.08;100.00;153691.25;5047286;28;20463;-74
2021/10/06 03:20:54;;;;;;;2.00;1.40;;;;;;;9.04;100.00;153680.88;5048641;28;20452;-74
2021/10/06 03:23:29;;;;;;;2.50;1.63;;;;;;;9.02;100.00;153675.72;5066585;28;20546;-74
2021/10/06 03:26:06;;;;;;;3.27;1.73;;;;;;;9.00;100.00;153670.56;5032414;28;20842;-74
2021/10/06 03:28:42;;;;;;;1.40;1.20;;;;;;;9.03;100.00;153679.59;5033086;28;20849;-74
2021/10/06 03:31:17;;;;;;;2.80;1.40;;;;;;;9.03;100.00;153679.59;5054913;28;20464;-74
2021/10/06 03:33:53;;;;;;;1.50;1.20;;;;;;;9.02;100.00;153675.72;5040804;28;20464;-74
2021/10/06 03:36:29;;;;;;;3.60;1.57;;;;;;;9.02;100.00;153677.03;5038528;28;20448;-74
2021/10/06 03:39:04;;;;;;;2.30;1.60;;;;;;;8.97;100.00;153662.81;5055171;28;20433;-74
2021/10/06 03:41:41;;;;;;;1.80;1.50;;;;;;;8.97;100.00;153662.81;5053548;28;20471;-74
2021/10/06 03:44:17;;;;;;;1.60;1.30;;;;;;;9.01;100.00;153673.13;5053054;28;20451;-74
2021/10/06 03:46:52;;;;;;;2.07;1.10;;;;;;;8.98;100.00;153665.34;5070855;28;20884;-74
2021/10/06 03:49:28;;;;;;;1.40;1.00;;;;;;;8.96;100.00;153660.19;5047508;28;20450;-74
2021/10/06 03:52:04;;;;;;;3.73;1.93;;;;;;;8.94;100.00;153655.03;5035172;28;20489;-74
2021/10/06 03:54:40;;;;;;;3.77;1.50;;;;;;;8.95;100.00;153657.59;5086284;28;20450;-74
2021/10/06 03:57:17;;;;;;;2.80;1.20;;;;;;;8.94;100.00;153655.03;5054149;28;20441;-74
2021/10/06 03:59:52;;;;;;;1.53;1.20;;;;;;;8.89;100.00;153643.41;5069698;28;20492;-74
2021/10/06 04:02:27;;;;;;;3.50;1.37;;;;;;;8.90;100.00;153644.66;5055390;28;20415;-74
2021/10/06 04:05:04;;;;;;;2.80;1.13;;;;;;;8.93;100.00;153652.44;5058642;28;20455;-74
2021/10/06 04:07:39;;;;;;;3.43;1.40;;;;;;;8.93;100.00;153652.44;5087454;28;20481;-73
2021/10/06 04:10:15;;;;;;;1.80;1.27;;;;;;;8.90;100.00;153644.66;5083362;28;20458;-74
2021/10/06 04:12:52;;;;;;;3.20;1.20;;;;;;;8.89;100.00;153642.13;5070309;28;20445;-74
2021/10/06 04:15:27;;;;;;;1.57;0.90;;;;;;;8.87;100.00;153638.22;5086613;28;20872;-74
2021/10/06 04:18:05;;;;;;;2.30;1.37;;;;;;;8.88;100.00;153639.50;5051757;28;20445;-74
2021/10/06 04:20:40;;;;;;;6.40;1.33;;;;;;;8.86;100.00;153634.34;5058951;28;20471;-74
2021/10/06 04:23:16;;;;;;;6.60;1.47;;;;;;;8.87;100.00;153638.22;5082629;28;20512;-74
2021/10/06 04:25:52;;;;;;;1.00;0.90;;;;;;;8.87;100.00;153636.94;5053998;28;20842;-74
2021/10/06 04:28:29;;;;;;;2.10;1.00;;;;;;;8.87;100.00;153638.22;5070623;28;20526;-74
2021/10/06 04:31:04;;;;;;;2.10;1.13;;;;;;;8.84;100.00;153629.19;5086985;28;20439;-74
2021/10/06 04:33:40;;;;;;;1.20;1.10;;;;;;;8.85;100.00;153631.75;5086773;28;20451;-74
2021/10/06 04:36:16;;;;;;;1.80;1.20;;;;;;;8.92;100.00;153651.13;5068618;28;20436;-74
2021/10/06 04:38:51;;;;;;;1.93;1.27;;;;;;;8.91;100.00;153647.28;5072257;28;20470;-74
2021/10/06 04:41:27;;;;;;;1.87;1.03;;;;;;;8.91;100.00;153648.56;5074143;28;20457;-74
2021/10/06 04:44:04;;;;;;;1.77;1.07;;;;;;;8.93;100.00;153652.44;5067295;28;20477;-74
2021/10/06 04:46:39;;;;;;;3.00;1.03;;;;;;;8.93;100.00;153653.72;5086782;28;20543;-74
2021/10/06 04:49:16;;;;;;;1.83;1.00;;;;;;;8.90;100.00;153645.97;5050126;28;20838;-74
2021/10/06 04:51:51;;;;;;;2.63;1.10;;;;;;;8.91;100.00;153647.28;5034139;28;20483;-74
2021/10/06 04:54:26;;;;;;;2.63;1.13;;;;;;;8.94;100.00;153655.03;5053142;28;20458;-74
2021/10/06 04:57:02;;;;;;;1.40;0.80;;;;;;;8.94;100.00;153655.03;5085228;28;20444;-74
2021/10/06 04:59:39;;;;;;;1.60;1.27;;;;;;;8.93;100.00;153652.44;5089674;28;20540;-74
2021/10/06 05:02:15;;;;;;;1.50;1.40;;;;;;;8.94;100.00;153655.03;5102657;28;20529;-74
2021/10/06 05:04:50;;;;;;;1.43;0.90;;;;;;;8.96;100.00;153660.19;5072449;28;20442;-74
2021/10/06 05:07:26;;;;;;;1.30;0.97;;;;;;;8.98;100.00;153665.34;5085592;28;20560;-73
2021/10/06 05:10:01;;;;;;;2.87;1.40;;;;;;;8.95;100.00;153658.91;5073486;28;20810;-73
2021/10/06 05:12:37;;;;;;;1.40;0.90;;;;;;;8.95;100.00;153658.91;5047489;28;20490;-73
2021/10/06 05:15:14;;;;;;;2.67;1.27;;;;;;;8.99;100.00;153667.97;5053307;28;20909;-73
2021/10/06 05:17:49;;;;;;;1.40;1.13;;;;;;;9.00;100.00;153670.56;5053143;28;20447;-73
2021/10/06 05:20:24;;;;;;;7.73;1.50;;;;;;;9.02;100.00;153677.03;5052320;28;20455;-74
2021/10/06 05:23:00;;;;;;;4.50;1.37;;;;;;;9.02;100.00;153675.72;5048988;28;20471;-73
2021/10/06 05:25:36;;;;;;;1.70;1.50;;;;;;;9.05;100.00;153683.50;5078849;28;20459;-73
2021/10/06 05:28:11;;;;;;;3.70;1.80;;;;;;;9.06;100.00;153687.34;5054613;28;20456;-73
2021/10/06 05:30:48;;;;;;;1.40;1.00;;;;;;;9.05;100.00;153684.75;5056793;28;20875;-73
2021/10/06 05:33:23;;;;;;;1.23;1.10;;;;;;;9.07;100.00;153688.66;5068407;28;20482;-73
2021/10/06 05:35:59;;;;;;;6.90;2.33;;;;;;;9.12;100.00;153702.88;5063868;28;20802;-73
2021/10/06 05:38:35;;;;;;;2.00;1.50;;;;;;;9.15;100.00;153710.66;5053965;28;20451;-73
2021/10/06 05:41:11;;;;;;;2.00;1.50;;;;;;;9.12;100.00;153701.59;5080276;28;20563;-73
2021/10/06 05:43:46;;;;;;;3.87;1.37;;;;;;;9.15;100.00;153709.34;5052298;28;20449;-73
2021/10/06 05:46:26;;;;;;;1.90;1.50;;;;;;;9.15;100.00;153709.34;5046534;28;20467;-73
2021/10/06 05:49:01;;;;;;;3.00;1.47;;;;;;;9.17;100.00;153714.50;5080134;28;20515;-73
2021/10/06 05:51:37;;;;;;;1.30;0.90;;;;;;;9.12;100.00;153702.88;5051137;28;20807;-73
2021/10/06 05:54:12;;;;;;;2.27;1.43;;;;;;;9.13;100.00;153704.19;5075149;28;20909;-73
2021/10/06 05:56:48;;;;;;;3.07;1.20;;;;;;;9.16;100.00;153713.22;5051966;28;20493;-73
2021/10/06 05:59:23;;;;;;;1.93;1.37;;;;;;;9.18;100.00;153717.13;5051261;28;20773;-73
2021/10/06 06:02:00;;;;;;;4.20;1.10;;;;;;;9.21;100.00;153724.88;5081863;28;20454;-73
2021/10/06 06:04:35;;;;;;;1.17;1.07;;;;;;;9.24;100.00;153732.59;5060060;28;20450;-73
2021/10/06 06:07:11;;;;;;;2.60;1.20;;;;;;;9.24;100.00;153732.59;5050801;28;20512;-73
2021/10/06 06:09:46;;;;;;;2.17;1.20;;;;;;;9.27;100.00;153740.38;5049955;28;20460;-73
2021/10/06 06:12:22;;;;;;;1.70;1.20;;;;;;;9.29;100.00;153744.28;5083566;28;20445;-73
2021/10/06 06:14:58;;;;;;;1.90;1.00;;;;;;;9.31;100.00;153750.75;5044890;28;20450;-73
2021/10/06 06:17:37;;;;;;;2.23;1.40;;;;;;;9.32;100.00;153752.03;5051927;28;20435;-73
2021/10/06 06:20:14;;;;;;;4.00;1.70;;;;;;;9.31;100.00;153750.75;5052482;28;20458;-73
2021/10/06 06:22:50;;;;;;;2.07;1.33;;;;;;;9.31;100.00;153750.75;5083315;28;20474;-74
2021/10/06 06:25:25;;;;;;;1.97;1.23;;;;;;;9.32;100.00;153752.03;5085450;28;20447;-73
2021/10/06 06:28:01;;;;;;;4.10;1.20;;;;;;;9.34;100.00;153758.50;5045426;28;20828;-73
2021/10/06 06:30:36;;;;;;;2.37;1.40;;;;;;;9.31;100.00;153750.75;5058801;28;21654;-73
2021/10/06 06:33:13;;;;;;;5.20;1.50;;;;;;;9.26;100.00;153737.81;5049494;28;20432;-73
2021/10/06 06:35:49;;;;;;;7.17;2.30;;;;;;;9.27;100.00;153740.38;5063637;28;20451;-73
2021/10/06 06:38:24;;;;;;;4.10;1.57;;;;;;;9.26;100.00;153737.81;5080528;28;20457;-74
2021/10/06 06:41:00;;;;;;;1.70;1.17;;;;;;;9.27;100.00;153739.06;5047274;28;20472;-73
2021/10/06 06:43:35;;;;;;;3.03;1.00;;;;;;;9.32;100.00;153752.03;5092521;28;20453;-73
2021/10/06 06:46:12;;;;;;;1.97;1.37;;;;;;;9.63;100.00;153833.53;5058054;28;20562;-73
2021/10/06 06:48:48;;;;;;;3.30;1.83;;;;;;;10.03;100.00;153934.47;5084082;28;20461;-73
2021/10/06 06:51:24;;;;;;;4.60;1.43;;;;;;;10.39;100.00;154027.69;5082868;28;20446;-74
2021/10/06 06:53:59;;;;;;;3.50;1.40;;;;;;;10.65;100.00;154093.72;5050228;28;20466;-74
2021/10/06 06:56:38;;;;;;;3.53;1.93;;;;;;;10.94;100.00;154170.13;5050315;28;20455;-74
2021/10/06 06:59:14;;;;;;;2.20;1.00;;;;;;;11.28;99.66;154255.66;5057233;28;20504;-74
2021/10/06 07:01:50;;;;;;;3.70;1.90;;;;;;;11.42;98.73;154291.91;5054149;28;20444;-74
2021/10/06 07:04:27;;;;;;;2.83;1.40;;;;;;;11.40;97.23;154286.72;5075569;28;20454;-74
2021/10/06 07:07:04;;;;;;;2.50;1.20;;;;;;;11.37;96.42;154278.94;5044663;28;20463;-74
2021/10/06 07:09:47;;;;;;;4.73;1.30;;;;;;;11.66;96.26;154354.09;5068767;28;20461;-74
2021/10/06 07:12:22;;;;;;;2.40;1.07;;;;;;;12.02;95.34;154447.44;5067489;28;20448;-74
2021/10/06 07:14:58;;;;;;;1.77;1.30;;;;;;;12.19;92.63;154491.56;5085610;28;20454;-74
2021/10/06 07:17:33;;;;;;;2.53;1.17;;;;;;;12.54;93.25;154579.72;5048723;28;20439;-74
2021/10/06 07:20:11;;;;;;;5.00;1.10;;;;;;;12.64;88.53;154605.66;5055279;28;20471;-74
2021/10/06 07:22:47;;;;;;;2.63;1.20;;;;;;;12.79;88.46;154644.53;5104638;28;20456;-74
2021/10/06 07:25:22;;;;;;;1.40;0.93;;;;;;;12.93;88.22;154680.88;5073785;28;20822;-74
2021/10/06 07:27:58;;;;;;;1.70;0.90;;;;;;;13.20;87.18;154749.69;5051432;28;20497;-74
2021/10/06 07:30:33;;;;;;;2.30;1.00;;;;;;;13.31;85.80;154778.25;5050457;28;20489;-74
2021/10/06 07:33:09;;;;;;;2.40;1.43;;;;;;;13.53;85.16;154834.06;5048048;28;20447;-74
2021/10/06 07:35:47;;;;;;;1.67;1.10;;;;;;;13.80;84.41;154904.09;5054338;28;20938;-74
2021/10/06 07:38:22;;;;;;;2.70;1.10;;;;;;;13.99;83.56;154953.44;5059901;28;20576;-74
2021/10/06 07:40:58;;;;;;;1.27;1.00;;;;;;;13.93;80.96;154937.84;5062047;28;20470;-74
2021/10/06 07:43:33;;;;;;;2.03;1.10;;;;;;;13.77;82.15;154896.31;5038353;28;20475;-74
2021/10/06 07:46:09;;;;;;;3.30;1.50;;;;;;;13.79;80.44;154901.53;5071743;28;20426;-74
2021/10/06 07:48:44;;;;;;;3.10;1.10;;;;;;;13.58;83.25;154847.03;5063712;28;20547;-74
2021/10/06 07:51:21;;;;;;;2.73;1.23;;;;;;;13.28;81.17;154771.75;5066312;28;20448;-74
2021/10/06 07:53:57;;;;;;;3.80;1.20;;;;;;;13.09;83.08;154722.44;5084353;28;20787;-74
2021/10/06 07:56:32;;;;;;;2.13;0.80;;;;;;;13.00;84.13;154697.75;5072006;28;20433;-74
2021/10/06 07:59:08;;;;;;;3.10;1.23;;;;;;;13.10;84.33;154725.06;5090425;28;20451;-74
2021/10/06 08:01:44;;;;;;;2.10;0.90;;;;;;;13.15;82.98;154738.03;5054564;28;20415;-74
2021/10/06 08:04:20;;;;;;;0.90;0.70;;;;;;;13.25;83.13;154763.97;5061258;28;20847;-74
2021/10/06 08:06:57;;;;;;;1.27;0.70;;;;;;;13.29;83.16;154774.31;5105423;28;20469;-74
2021/10/06 08:09:32;;;;;;;1.97;1.10;;;;;;;13.24;83.86;154760.03;5082721;28;20473;-74
2021/10/06 08:12:08;;;;;;;1.80;1.07;;;;;;;13.22;83.02;154754.88;5091792;28;20533;-74
2021/10/06 08:14:44;;;;;;;6.87;1.20;;;;;;;13.14;85.79;154735.41;5104793;28;20952;-74
2021/10/06 08:17:20;;;;;;;3.70;1.17;;;;;;;13.18;83.64;154744.50;5067368;28;21095;-74
2021/10/06 08:19:55;;;;;;;1.77;1.10;;;;;;;13.13;83.61;154732.78;5056183;28;20494;-74
2021/10/06 08:22:32;;;;;;;2.77;1.10;;;;;;;13.22;84.08;154756.19;5074270;28;20418;-74
2021/10/06 08:25:08;;;;;;;1.20;0.80;;;;;;;13.46;81.74;154817.16;5073654;28;20847;-74
2021/10/06 08:27:45;;;;;;;1.50;1.10;;;;;;;13.59;80.63;154849.59;5049053;28;20459;-74
2021/10/06 08:30:20;;;;;;;4.63;1.50;;;;;;;13.65;84.57;154866.50;5067427;28;20461;-74
2021/10/06 08:32:56;;;;;;;1.60;1.00;;;;;;;13.74;84.11;154888.56;5059046;28;20431;-74
2021/10/06 08:35:32;;;;;;;2.00;0.93;;;;;;;13.80;81.47;154904.09;5065086;28;20950;-73
2021/10/06 08:38:09;;;;;;;2.37;1.10;;;;;;;13.87;80.14;154922.31;5100791;28;20447;-73
2021/10/06 08:40:45;;;;;;;1.50;0.90;;;;;;;13.87;81.21;154922.31;5035056;28;20468;-74
2021/10/06 08:43:20;;;;;;;2.90;0.87;;;;;;;13.78;82.71;154898.91;5039653;28;20921;-73
2021/10/06 08:45:56;;;;;;;2.33;0.80;;;;;;;13.56;82.86;154843.09;5067158;28;20953;-74
2021/10/06 08:48:31;;;;;;;3.00;1.10;;;;;;;13.46;80.27;154817.16;5083081;28;20480;-74
2021/10/06 08:51:07;;;;;;;3.10;0.90;;;;;;;13.31;81.46;154779.56;5050183;28;20455;-73
2021/10/06 08:53:44;;;;;;;1.87;0.90;;;;;;;13.26;82.65;154765.28;5061594;28;20448;-73
2021/10/06 08:56:21;;;;;;;2.50;1.40;;;;;;;13.13;80.30;154732.78;5059262;28;20445;-73
2021/10/06 08:58:57;;;;;;;4.60;1.03;;;;;;;13.06;81.64;154714.59;5080355;28;20447;-73
2021/10/06 09:01:32;;;;;;;1.50;0.90;;;;;;;12.96;84.64;154687.34;5048376;28;20794;-74
2021/10/06 09:04:07;;;;;;;2.20;1.10;;;;;;;12.96;85.19;154688.66;5047389;28;20496;-74
2021/10/06 09:06:44;;;;;;;2.07;1.30;;;;;;;12.88;86.63;154666.59;5079526;28;20929;-74
2021/10/06 09:09:22;;;;;;;2.23;1.10;;;;;;;12.77;86.71;154640.66;5080881;28;20926;-74
2021/10/06 09:11:59;;;;;;;2.53;1.40;;;;;;;12.86;87.74;154661.44;5082293;28;20475;-73
2021/10/06 09:14:36;;;;;;;2.23;0.80;;;;;;;12.94;87.62;154683.50;5067395;28;20461;-74
2021/10/06 09:17:13;;;;;;;3.33;1.30;;;;;;;13.04;86.23;154709.44;5042595;28;20951;-73
2021/10/06 09:19:53;;;;;;;5.40;2.40;;;;;;;13.06;86.37;154714.59;5057032;28;20478;-73
2021/10/06 09:22:30;;;;;;;2.93;1.07;;;;;;;13.10;83.53;154723.75;5079091;28;20451;-73
2021/10/06 09:25:09;;;;;;;3.87;1.00;;;;;;;13.18;83.10;154745.81;5035539;28;20479;-74
2021/10/06 09:27:44;;;;;;;2.17;1.00;;;;;;;13.17;84.59;154741.91;5092757;28;20497;-73
2021/10/06 09:30:20;;;;;;;1.80;1.10;;;;;;;13.09;85.52;154722.44;5103096;28;20440;-73
2021/10/06 09:32:55;;;;;;;1.50;0.90;;;;;;;13.04;83.39;154709.44;5073498;28;20453;-73
2021/10/06 09:35:31;;;;;;;1.30;0.80;;;;;;;13.06;81.24;154714.59;5056797;28;20460;-73
2021/10/06 09:38:07;;;;;;;2.73;0.80;;;;;;;13.18;82.07;154745.81;5064008;28;20455;-73
2021/10/06 09:40:44;;;;;;;2.60;0.80;;;;;;;13.19;81.40;154748.38;5037351;28;20521;-73
2021/10/06 09:43:28;;;;;;;3.20;1.07;;;;;;;13.25;79.73;154763.97;5055899;28;20445;-74
2021/10/06 09:46:03;;;;;;;3.17;1.30;;;;;;;13.22;79.01;154756.19;5042743;28;20455;-73
2021/10/06 09:48:39;;;;;;;1.90;1.50;;;;;;;13.28;79.73;154771.75;5062782;28;20486;-73
2021/10/06 09:51:14;;;;;;;2.90;1.20;;;;;;;13.43;79.41;154810.66;5057523;28;20434;-73
2021/10/06 09:53:50;;;;;;;2.50;0.90;;;;;;;13.53;79.85;154835.31;5073809;28;20458;-73
2021/10/06 09:56:27;;;;;;;1.47;0.97;;;;;;;13.65;77.21;154865.19;5050676;28;20426;-73
2021/10/06 09:59:02;;;;;;;2.30;1.10;;;;;;;13.71;79.08;154880.78;5054281;28;20450;-73
2021/10/06 10:01:39;;;;;;;2.27;0.93;;;;;;;13.79;76.45;154901.53;5053452;28;20447;-74
2021/10/06 10:04:15;;;;;;;4.23;1.30;;;;;;;13.85;77.19;154918.38;5054430;28;20450;-74
2021/10/06 10:06:56;;;;;;;1.47;0.87;;;;;;;13.80;79.46;154904.09;5084251;28;20484;-74
2021/10/06 10:09:32;;;;;;;2.40;0.87;;;;;;;13.75;80.03;154891.13;5057754;28;20454;-74
2021/10/06 10:12:15;;;;;;;2.37;0.90;;;;;;;13.51;85.02;154828.81;5050940;28;20448;-74
2021/10/06 10:14:52;;;;;;;2.40;1.03;;;;;;;13.37;84.03;154795.09;5051588;28;20467;-74
2021/10/06 10:17:28;;;;;;;2.87;1.50;;;;;;;13.31;87.11;154778.25;5055722;28;20837;-74
2021/10/06 10:20:10;;;;;;;3.03;1.03;;;;;;;13.09;85.50;154721.13;5087504;28;20817;-74
2021/10/06 10:22:50;;;;;;;1.43;0.90;;;;;;;13.05;86.99;154710.72;5056580;28;20449;-74
2021/10/06 10:25:27;;;;;;;1.87;0.77;;;;;;;12.98;87.07;154692.53;5079664;28;20452;-74
2021/10/06 10:28:07;;;;;;;1.70;0.73;;;;;;;12.97;89.25;154691.28;5053224;28;20551;-74
2021/10/06 10:30:59;;;;;;;1.40;0.90;;;;;;;12.91;89.53;154675.69;5047136;28;20444;-74
2021/10/06 10:33:40;;;;;;;3.33;0.90;;;;;;;12.88;87.90;154666.59;5031941;28;20780;-74
2021/10/06 10:36:49;;;;;;;2.10;0.77;;;;;;;12.93;88.17;154680.88;5044319;28;21419;-74
2021/10/06 10:39:58;;;;;;;2.63;0.90;;;;;;;13.02;89.50;154702.94;5033626;28;20451;-74
2021/10/06 10:42:58;;;;;;;1.20;1.00;;;;;;;13.04;88.09;154709.44;5042178;28;20447;-74
2021/10/06 10:45:40;;;;;;;3.20;1.97;;;;;;;13.24;83.87;154761.34;5052695;28;20447;-74
2021/10/06 10:48:18;;;;;;;2.50;0.90;;;;;;;13.43;84.61;154810.66;5087540;28;20466;-74
2021/10/06 10:51:13;;;;;;;1.80;0.90;;;;;;;13.56;82.37;154841.78;5062361;28;20448;-74
2021/10/06 10:54:02;;;;;;;1.27;0.80;;;;;;;13.58;81.04;154848.28;5056845;28;20466;-74
2021/10/06 10:56:47;;;;;;;1.50;1.00;;;;;;;13.70;84.30;154878.16;5056496;28;20980;-74
2021/10/06 10:59:24;;;;;;;2.40;0.73;;;;;;;13.53;84.34;154834.06;5078007;28;20942;-74
2021/10/06 11:02:00;;;;;;;1.20;0.90;;;;;;;13.33;82.22;154783.44;5056328;28;20475;-74
2021/10/06 11:04:36;;;;;;;4.23;0.83;;;;;;;13.13;83.96;154732.78;5095055;28;20455;-74
2021/10/06 11:07:14;;;;;;;1.70;0.70;;;;;;;13.12;85.77;154730.22;5051118;28;20415;-74
2021/10/06 11:09:51;;;;;;;1.40;0.80;;;;;;;13.21;86.54;154753.56;5067775;28;20477;-74
2021/10/06 11:12:37;;;;;;;1.87;0.90;;;;;;;13.43;87.16;154810.66;5048708;28;20444;-74
2021/10/06 11:15:33;;;;;;;1.50;0.90;;;;;;;13.59;88.93;154850.91;5077661;28;20537;-74
2021/10/06 11:18:41;;;;;;;2.17;1.70;;;;;;;13.68;83.85;154872.97;5066235;28;20451;-74
2021/10/06 11:21:31;;;;;;;3.30;0.73;;;;;;;13.71;83.46;154882.06;5098002;28;20421;-74
2021/10/06 11:24:21;;;;;;;1.73;0.80;;;;;;;13.80;86.56;154905.41;5064666;28;20445;-74
2021/10/06 11:26:59;;;;;;;1.37;0.80;;;;;;;13.81;84.11;154908.03;5053263;28;20988;-74
2021/10/06 11:29:41;;;;;;;2.07;1.10;;;;;;;13.80;83.14;154905.41;5077337;28;20486;-74
2021/10/06 11:32:17;;;;;;;1.47;1.10;;;;;;;13.79;83.12;154902.78;5061714;28;20439;-74
2021/10/06 11:34:55;;;;;;;3.60;1.60;;;;;;;13.75;82.11;154892.44;5056284;28;20448;-74
2021/10/06 11:37:34;;;;;;;3.33;2.30;;;;;;;13.80;85.76;154904.09;5080862;28;20447;-74
2021/10/06 11:40:11;;;;;;;0.93;0.70;;;;;;;13.88;84.89;154924.88;5081342;28;20483;-74
2021/10/06 11:42:48;;;;;;;2.60;1.03;;;;;;;13.99;76.93;154953.44;5031144;28;20420;-74
2021/10/06 11:45:24;;;;;;;1.40;0.80;;;;;;;14.01;79.33;154959.94;5047776;28;20449;-74
2021/10/06 11:48:02;;;;;;;2.10;1.00;;;;;;;13.99;78.69;154954.75;5067863;28;20471;-74
2021/10/06 11:50:40;;;;;;;1.87;0.80;;;;;;;14.06;76.88;154971.59;5065954;28;20462;-74
2021/10/06 11:53:15;;;;;;;2.27;1.00;;;;;;;13.98;76.35;154952.13;5031454;28;20417;-74
2021/10/06 11:55:51;;;;;;;2.20;0.80;;;;;;;13.88;77.02;154924.88;5064622;28;20442;-74
2021/10/06 11:58:34;;;;;;;3.50;1.20;;;;;;;13.79;79.08;154901.53;5069109;28;20446;-74
2021/10/06 12:01:10;;;;;;;2.80;0.90;;;;;;;13.77;78.57;154896.31;5063912;28;20785;-74
2021/10/06 12:03:45;;;;;;;2.53;1.00;;;;;;;13.77;74.08;154896.31;5070629;28;20446;-74
2021/10/06 12:06:23;;;;;;;2.27;0.80;;;;;;;13.74;75.78;154888.56;5056703;28;20923;-74
2021/10/06 12:09:00;;;;;;;1.47;0.97;;;;;;;13.77;72.57;154896.31;5094620;28;20485;-73